sensor_id;sensor_type;location;lat;lon;timestamp;pressure;altitude;pressure_sealevel;temperature;humidity
82249;BME280;71851;49.092;18.918;2023-09-18T00:01:02;97531.06;;;16.12;70.95
82249;BME280;71851;49.092;18.918;2023-09-18T00:04:02;97525.38;;;16.08;70.95
82249;BME280;71851;49.092;18.918;2023-09-18T00:07:03;97528.44;;;16.05;70.56
82249;BME280;71851;49.092;18.918;2023-09-18T00:10:04;97527.28;;;15.95;71.31
82249;BME280;71851;49.092;18.918;2023-09-18T00:13:04;97520.34;;;15.94;70.89
82249;BME280;71851;49.092;18.918;2023-09-18T00:16:05;97516.47;;;15.90;71.61
82249;BME280;71851;49.092;18.918;2023-09-18T00:19:05;97521.78;;;15.90;71.34
82249;BME280;71851;49.092;18.918;2023-09-18T00:22:08;97510.19;;;15.84;71.21
82249;BME280;71851;49.092;18.918;2023-09-18T00:25:08;97516.72;;;15.82;71.15
82249;BME280;71851;49.092;18.918;2023-09-18T00:28:09;97511.63;;;15.80;71.54
82249;BME280;71851;49.092;18.918;2023-09-18T00:31:09;97518.13;;;15.84;71.41
82249;BME280;71851;49.092;18.918;2023-09-18T00:34:10;97509.81;;;15.74;72.10
82249;BME280;71851;49.092;18.918;2023-09-18T00:37:10;97525.69;;;15.74;71.86
82249;BME280;71851;49.092;18.918;2023-09-18T00:40:12;97521.63;;;15.78;71.72
82249;BME280;71851;49.092;18.918;2023-09-18T00:43:13;97534.25;;;15.70;72.08
82249;BME280;71851;49.092;18.918;2023-09-18T00:46:13;97522.44;;;15.66;72.43
82249;BME280;71851;49.092;18.918;2023-09-18T00:49:14;97525.91;;;15.60;72.52
82249;BME280;71851;49.092;18.918;2023-09-18T00:52:15;97524.31;;;15.59;72.39
82249;BME280;71851;49.092;18.918;2023-09-18T00:55:17;97522.47;;;15.53;72.53
82249;BME280;71851;49.092;18.918;2023-09-18T00:58:18;97525.09;;;15.59;72.40
82249;BME280;71851;49.092;18.918;2023-09-18T01:01:19;97520.22;;;15.56;72.80
82249;BME280;71851;49.092;18.918;2023-09-18T01:04:23;97509.03;;;15.48;72.59
82249;BME280;71851;49.092;18.918;2023-09-18T01:07:26;97513.13;;;15.50;72.88
82249;BME280;71851;49.092;18.918;2023-09-18T01:10:32;97512.94;;;15.45;72.87
82249;BME280;71851;49.092;18.918;2023-09-18T01:13:44;97515.38;;;15.47;72.50
82249;BME280;71851;49.092;18.918;2023-09-18T01:16:59;97517.16;;;15.40;71.95
82249;BME280;71851;49.092;18.918;2023-09-18T01:20:05;97518.41;;;15.37;71.58
82249;BME280;71851;49.092;18.918;2023-09-18T01:23:06;97514.31;;;15.34;71.92
82249;BME280;71851;49.092;18.918;2023-09-18T01:26:06;97509.44;;;15.31;72.12
82249;BME280;71851;49.092;18.918;2023-09-18T01:29:06;97514.53;;;15.26;72.68
82249;BME280;71851;49.092;18.918;2023-09-18T01:32:07;97521.44;;;15.27;72.94
82249;BME280;71851;49.092;18.918;2023-09-18T01:35:08;97524.50;;;15.24;73.64
82249;BME280;71851;49.092;18.918;2023-09-18T01:38:09;97520.66;;;15.20;73.08
82249;BME280;71851;49.092;18.918;2023-09-18T01:41:11;97524.72;;;15.23;72.99
82249;BME280;71851;49.092;18.918;2023-09-18T01:44:12;97517.38;;;15.18;73.14
82249;BME280;71851;49.092;18.918;2023-09-18T01:47:16;97520.25;;;15.17;72.45
82249;BME280;71851;49.092;18.918;2023-09-18T01:50:17;97514.72;;;15.12;73.34
82249;BME280;71851;49.092;18.918;2023-09-18T01:53:18;97510.06;;;15.14;73.25
82249;BME280;71851;49.092;18.918;2023-09-18T01:56:18;97507.00;;;15.10;72.81
82249;BME280;71851;49.092;18.918;2023-09-18T01:59:20;97519.41;;;15.03;73.30
82249;BME280;71851;49.092;18.918;2023-09-18T02:02:21;97511.28;;;14.98;73.43
82249;BME280;71851;49.092;18.918;2023-09-18T02:05:21;97517.38;;;14.92;73.69
82249;BME280;71851;49.092;18.918;2023-09-18T02:08:22;97526.94;;;15.00;73.64
82249;BME280;71851;49.092;18.918;2023-09-18T02:11:22;97517.38;;;14.92;74.31
82249;BME280;71851;49.092;18.918;2023-09-18T02:14:23;97518.38;;;14.91;74.10
82249;BME280;71851;49.092;18.918;2023-09-18T02:17:24;97513.28;;;14.83;74.23
82249;BME280;71851;49.092;18.918;2023-09-18T02:20:24;97507.38;;;14.81;74.59
82249;BME280;71851;49.092;18.918;2023-09-18T02:23:25;97515.13;;;14.83;73.78
82249;BME280;71851;49.092;18.918;2023-09-18T02:26:25;97502.72;;;14.83;73.19
82249;BME280;71851;49.092;18.918;2023-09-18T02:29:26;97503.75;;;14.82;72.81
82249;BME280;71851;49.092;18.918;2023-09-18T02:32:26;97505.97;;;14.79;74.15
82249;BME280;71851;49.092;18.918;2023-09-18T02:35:27;97499.47;;;14.75;73.83
82249;BME280;71851;49.092;18.918;2023-09-18T02:38:28;97510.84;;;14.75;74.09
82249;BME280;71851;49.092;18.918;2023-09-18T02:41:28;97508.38;;;14.67;73.47
82249;BME280;71851;49.092;18.918;2023-09-18T02:44:29;97505.34;;;14.64;73.32
82249;BME280;71851;49.092;18.918;2023-09-18T02:47:29;97499.66;;;14.67;73.50
82249;BME280;71851;49.092;18.918;2023-09-18T02:50:30;97496.41;;;14.71;73.00
82249;BME280;71851;49.092;18.918;2023-09-18T02:53:31;97492.16;;;14.77;73.27
82249;BME280;71851;49.092;18.918;2023-09-18T02:56:32;97505.34;;;14.83;73.04
82249;BME280;71851;49.092;18.918;2023-09-18T02:59:32;97498.88;;;14.86;73.56
82249;BME280;71851;49.092;18.918;2023-09-18T03:02:33;97506.41;;;14.89;73.15
82249;BME280;71851;49.092;18.918;2023-09-18T03:05:34;97505.38;;;14.90;73.13
82249;BME280;71851;49.092;18.918;2023-09-18T03:08:34;97507.81;;;14.98;72.82
82249;BME280;71851;49.092;18.918;2023-09-18T03:49:56;97479.16;;;14.95;74.13
82249;BME280;71851;49.092;18.918;2023-09-18T03:52:56;97479.97;;;14.95;73.91
82249;BME280;71851;49.092;18.918;2023-09-18T03:55:57;97476.72;;;15.00;73.37
82249;BME280;71851;49.092;18.918;2023-09-18T03:58:57;97468.78;;;15.06;73.75
82249;BME280;71851;49.092;18.918;2023-09-18T04:02:01;97472.88;;;15.09;73.86
82249;BME280;71851;49.092;18.918;2023-09-18T04:05:03;97475.31;;;15.17;73.33
82249;BME280;71851;49.092;18.918;2023-09-18T04:08:03;97476.69;;;15.19;72.97
82249;BME280;71851;49.092;18.918;2023-09-18T04:11:04;97477.91;;;15.23;73.41
82249;BME280;71851;49.092;18.918;2023-09-18T04:14:04;97465.91;;;15.27;72.96
82249;BME280;71851;49.092;18.918;2023-09-18T04:17:05;97460.22;;;15.30;72.82
82249;BME280;71851;49.092;18.918;2023-09-18T04:20:17;97465.91;;;15.27;72.50
82249;BME280;71851;49.092;18.918;2023-09-18T04:23:20;97471.22;;;15.08;74.11
82249;BME280;71851;49.092;18.918;2023-09-18T05:05:09;97441.88;;;16.12;70.99
82249;BME280;71851;49.092;18.918;2023-09-18T05:08:10;97449.34;;;16.22;70.11
82249;BME280;71851;49.092;18.918;2023-09-18T05:11:11;97446.66;;;16.35;70.46
82249;BME280;71851;49.092;18.918;2023-09-18T05:14:11;97445.94;;;16.53;70.34
82249;BME280;71851;49.092;18.918;2023-09-18T05:17:15;97444.88;;;16.60;69.64
82249;BME280;71851;49.092;18.918;2023-09-18T05:20:16;97445.66;;;16.67;68.72
82249;BME280;71851;49.092;18.918;2023-09-18T05:23:16;97437.13;;;16.83;68.70
82249;BME280;71851;49.092;18.918;2023-09-18T05:26:17;97443.16;;;16.97;68.18
82249;BME280;71851;49.092;18.918;2023-09-18T05:29:19;97441.84;;;17.06;68.04
82249;BME280;71851;49.092;18.918;2023-09-18T05:32:20;97436.91;;;17.10;68.13
82249;BME280;71851;49.092;18.918;2023-09-18T05:35:21;97440.72;;;17.20;67.30
82249;BME280;71851;49.092;18.918;2023-09-18T05:38:21;97432.47;;;17.28;67.22
82249;BME280;71851;49.092;18.918;2023-09-18T05:41:22;97420.56;;;17.37;67.08
82249;BME280;71851;49.092;18.918;2023-09-18T05:44:25;97418.00;;;17.49;66.73
82249;BME280;71851;49.092;18.918;2023-09-18T05:47:26;97415.88;;;17.57;66.86
82249;BME280;71851;49.092;18.918;2023-09-18T05:50:27;97416.84;;;17.63;66.71
82249;BME280;71851;49.092;18.918;2023-09-18T05:53:29;97423.38;;;17.78;66.28
82249;BME280;71851;49.092;18.918;2023-09-18T05:56:30;97408.78;;;17.88;65.45
82249;BME280;71851;49.092;18.918;2023-09-18T05:59:31;97413.44;;;18.04;65.27
82249;BME280;71851;49.092;18.918;2023-09-18T06:02:31;97415.28;;;18.21;64.78
82249;BME280;71851;49.092;18.918;2023-09-18T06:05:32;97419.72;;;18.39;64.03
82249;BME280;71851;49.092;18.918;2023-09-18T06:08:34;97413.09;;;18.30;64.26
82249;BME280;71851;49.092;18.918;2023-09-18T06:11:34;97402.91;;;18.45;64.32
82249;BME280;71851;49.092;18.918;2023-09-18T06:14:35;97400.91;;;18.82;63.14
82249;BME280;71851;49.092;18.918;2023-09-18T06:17:37;97397.94;;;21.05;56.63
82249;BME280;71851;49.092;18.918;2023-09-18T06:20:38;97385.81;;;23.02;50.02
82249;BME280;71851;49.092;18.918;2023-09-18T06:23:39;97389.75;;;24.75;45.97
82249;BME280;71851;49.092;18.918;2023-09-18T06:26:40;97392.00;;;25.87;41.87
82249;BME280;71851;49.092;18.918;2023-09-18T06:29:40;97381.63;;;27.31;39.02
82249;BME280;71851;49.092;18.918;2023-09-18T06:32:43;97374.28;;;28.31;36.73
82249;BME280;71851;49.092;18.918;2023-09-18T06:35:43;97368.69;;;28.78;35.36
82249;BME280;71851;49.092;18.918;2023-09-18T06:38:44;97363.22;;;29.88;33.61
82249;BME280;71851;49.092;18.918;2023-09-18T06:41:44;97369.09;;;30.89;31.25
82249;BME280;71851;49.092;18.918;2023-09-18T06:44:46;97360.81;;;31.38;30.22
82249;BME280;71851;49.092;18.918;2023-09-18T06:47:47;97359.03;;;31.73;29.38
82249;BME280;71851;49.092;18.918;2023-09-18T06:50:47;97352.50;;;32.47;28.69
82249;BME280;71851;49.092;18.918;2023-09-18T06:53:48;97370.34;;;33.25;27.43
82249;BME280;71851;49.092;18.918;2023-09-18T06:56:48;97355.97;;;33.25;26.95
82249;BME280;71851;49.092;18.918;2023-09-18T06:59:48;97352.16;;;32.83;27.07
82249;BME280;71851;49.092;18.918;2023-09-18T07:02:49;97361.72;;;33.70;26.73
82249;BME280;71851;49.092;18.918;2023-09-18T07:05:49;97357.56;;;34.31;25.96
82249;BME280;71851;49.092;18.918;2023-09-18T07:08:50;97360.06;;;34.65;25.72
82249;BME280;71851;49.092;18.918;2023-09-18T07:11:50;97361.06;;;35.26;24.62
82249;BME280;71851;49.092;18.918;2023-09-18T07:14:51;97352.06;;;35.94;23.92
82249;BME280;71851;49.092;18.918;2023-09-18T07:17:51;97356.91;;;36.37;22.79
82249;BME280;71851;49.092;18.918;2023-09-18T07:20:52;97350.56;;;36.21;23.20
82249;BME280;71851;49.092;18.918;2023-09-18T07:23:52;97346.19;;;37.11;22.24
82249;BME280;71851;49.092;18.918;2023-09-18T07:26:52;97348.94;;;37.11;22.54
82249;BME280;71851;49.092;18.918;2023-09-18T07:29:55;97358.72;;;37.71;21.88
82249;BME280;71851;49.092;18.918;2023-09-18T07:32:57;97351.44;;;38.25;20.52
82249;BME280;71851;49.092;18.918;2023-09-18T07:35:58;97347.00;;;38.56;20.85
82249;BME280;71851;49.092;18.918;2023-09-18T07:38:58;97351.22;;;37.09;21.61
82249;BME280;71851;49.092;18.918;2023-09-18T07:41:58;97341.44;;;38.71;20.49
82249;BME280;71851;49.092;18.918;2023-09-18T07:44:59;97338.16;;;39.23;19.81
82249;BME280;71851;49.092;18.918;2023-09-18T07:48:00;97329.94;;;39.04;20.69
82249;BME280;71851;49.092;18.918;2023-09-18T07:51:00;97332.75;;;39.07;19.97
82249;BME280;71851;49.092;18.918;2023-09-18T07:54:00;97329.56;;;37.32;21.94
82249;BME280;71851;49.092;18.918;2023-09-18T07:57:01;97327.84;;;38.78;20.79
82249;BME280;71851;49.092;18.918;2023-09-18T08:00:01;97320.78;;;38.77;20.27
82249;BME280;71851;49.092;18.918;2023-09-18T08:03:12;97320.84;;;38.43;20.43
82249;BME280;71851;49.092;18.918;2023-09-18T08:06:12;97318.38;;;38.38;21.14
82249;BME280;71851;49.092;18.918;2023-09-18T08:09:14;97311.75;;;38.96;19.90
82249;BME280;71851;49.092;18.918;2023-09-18T08:12:15;97319.31;;;38.45;21.26
82249;BME280;71851;49.092;18.918;2023-09-18T08:15:15;97319.19;;;38.95;21.23
82249;BME280;71851;49.092;18.918;2023-09-18T08:18:15;97319.91;;;37.38;22.45
82249;BME280;71851;49.092;18.918;2023-09-18T08:21:16;97310.13;;;37.84;22.01
82249;BME280;71851;49.092;18.918;2023-09-18T08:24:17;97321.44;;;37.35;21.44
82249;BME280;71851;49.092;18.918;2023-09-18T08:27:17;97314.63;;;37.45;22.01
82249;BME280;71851;49.092;18.918;2023-09-18T08:30:18;97300.03;;;37.88;20.74
82249;BME280;71851;49.092;18.918;2023-09-18T08:33:21;97308.63;;;37.39;21.91
82249;BME280;71851;49.092;18.918;2023-09-18T08:36:21;97307.00;;;37.38;21.21
82249;BME280;71851;49.092;18.918;2023-09-18T08:39:23;97299.38;;;36.06;23.25
82249;BME280;71851;49.092;18.918;2023-09-18T08:42:24;97299.31;;;34.14;25.68
82249;BME280;71851;49.092;18.918;2023-09-18T08:45:46;97294.16;;;33.63;26.37
82249;BME280;71851;49.092;18.918;2023-09-18T08:48:49;97289.44;;;33.81;26.70
82249;BME280;71851;49.092;18.918;2023-09-18T08:51:51;97289.44;;;34.51;25.51
82249;BME280;71851;49.092;18.918;2023-09-18T08:54:54;97276.28;;;33.07;27.52
82249;BME280;71851;49.092;18.918;2023-09-18T08:57:57;97278.50;;;35.29;24.81
82249;BME280;71851;49.092;18.918;2023-09-18T09:00:59;97273.13;;;34.63;25.06
82249;BME280;71851;49.092;18.918;2023-09-18T09:04:00;97274.50;;;34.81;24.90
82249;BME280;71851;49.092;18.918;2023-09-18T09:07:00;97269.84;;;35.02;24.48
82249;BME280;71851;49.092;18.918;2023-09-18T09:10:02;97270.34;;;36.41;23.22
82249;BME280;71851;49.092;18.918;2023-09-18T09:13:03;97270.44;;;35.44;22.80
82249;BME280;71851;49.092;18.918;2023-09-18T09:16:03;97278.59;;;35.08;23.64
82249;BME280;71851;49.092;18.918;2023-09-18T09:19:04;97268.53;;;35.57;22.75
82249;BME280;71851;49.092;18.918;2023-09-18T09:22:04;97271.44;;;33.21;25.81
82249;BME280;71851;49.092;18.918;2023-09-18T09:25:22;97261.88;;;32.26;28.40
82249;BME280;71851;49.092;18.918;2023-09-18T09:28:30;97264.72;;;32.73;27.70
82249;BME280;71851;49.092;18.918;2023-09-18T09:31:31;97245.72;;;32.38;26.96
82249;BME280;71851;49.092;18.918;2023-09-18T09:34:31;97245.47;;;33.91;24.59
82249;BME280;71851;49.092;18.918;2023-09-18T09:37:32;97243.31;;;31.94;27.23
82249;BME280;71851;49.092;18.918;2023-09-18T09:40:32;97246.19;;;30.05;30.90
82249;BME280;71851;49.092;18.918;2023-09-18T09:43:33;97256.41;;;28.08;34.18
82249;BME280;71851;49.092;18.918;2023-09-18T09:46:34;97246.78;;;28.34;34.14
82249;BME280;71851;49.092;18.918;2023-09-18T09:49:45;97238.47;;;27.74;35.65
82249;BME280;71851;49.092;18.918;2023-09-18T09:52:48;97237.69;;;28.30;34.33
82249;BME280;71851;49.092;18.918;2023-09-18T09:55:54;97231.75;;;27.30;36.08
82249;BME280;71851;49.092;18.918;2023-09-18T09:59:02;97228.22;;;27.11;36.89
82249;BME280;71851;49.092;18.918;2023-09-18T10:02:04;97230.19;;;26.81;38.10
82249;BME280;71851;49.092;18.918;2023-09-18T10:05:04;97228.38;;;28.36;35.18
82249;BME280;71851;49.092;18.918;2023-09-18T10:08:13;97219.44;;;27.47;36.32
82249;BME280;71851;49.092;18.918;2023-09-18T10:11:15;97228.84;;;27.50;36.29
82249;BME280;71851;49.092;18.918;2023-09-18T10:14:20;97218.19;;;27.16;36.92
82249;BME280;71851;49.092;18.918;2023-09-18T10:17:21;97215.22;;;27.41;35.87
82249;BME280;71851;49.092;18.918;2023-09-18T10:20:23;97226.84;;;27.13;37.00
82249;BME280;71851;49.092;18.918;2023-09-18T10:26:47;97227.31;;;26.39;38.43
82249;BME280;71851;49.092;18.918;2023-09-18T10:29:49;97226.31;;;26.59;38.38
82249;BME280;71851;49.092;18.918;2023-09-18T10:32:52;97216.59;;;26.63;38.36
82249;BME280;71851;49.092;18.918;2023-09-18T10:35:53;97210.25;;;27.48;36.74
82249;BME280;71851;49.092;18.918;2023-09-18T10:38:56;97211.13;;;27.62;35.69
82249;BME280;71851;49.092;18.918;2023-09-18T10:42:00;97211.88;;;27.68;35.87
82249;BME280;71851;49.092;18.918;2023-09-18T10:45:03;97213.91;;;28.78;33.74
82249;BME280;71851;49.092;18.918;2023-09-18T10:48:07;97214.28;;;29.66;32.45
82249;BME280;71851;49.092;18.918;2023-09-18T10:51:10;97207.38;;;30.09;30.83
82249;BME280;71851;49.092;18.918;2023-09-18T10:54:15;97218.50;;;28.31;32.96
82249;BME280;71851;49.092;18.918;2023-09-18T10:57:16;97221.50;;;27.93;33.78
82249;BME280;71851;49.092;18.918;2023-09-18T11:00:17;97196.09;;;28.90;32.58
82249;BME280;71851;49.092;18.918;2023-09-18T11:03:23;97201.44;;;29.22;31.82
82249;BME280;71851;49.092;18.918;2023-09-18T11:06:24;97198.81;;;28.12;34.25
82249;BME280;71851;49.092;18.918;2023-09-18T11:09:28;97203.13;;;28.45;33.44
82249;BME280;71851;49.092;18.918;2023-09-18T11:12:43;97186.91;;;29.05;33.13
82249;BME280;71851;49.092;18.918;2023-09-18T11:15:44;97175.47;;;29.35;32.21
82249;BME280;71851;49.092;18.918;2023-09-18T11:18:47;97193.47;;;28.58;32.75
82249;BME280;71851;49.092;18.918;2023-09-18T11:22:06;97185.44;;;29.26;31.54
82249;BME280;71851;49.092;18.918;2023-09-18T11:25:38;97169.63;;;29.55;31.13
82249;BME280;71851;49.092;18.918;2023-09-18T11:28:41;97163.53;;;28.54;32.38
82249;BME280;71851;49.092;18.918;2023-09-18T11:31:54;97165.13;;;28.10;33.55
82249;BME280;71851;49.092;18.918;2023-09-18T11:35:06;97157.38;;;28.95;32.49
82249;BME280;71851;49.092;18.918;2023-09-18T11:38:09;97155.38;;;29.63;30.98
82249;BME280;71851;49.092;18.918;2023-09-18T12:20:33;97116.81;;;28.54;32.92
82249;BME280;71851;49.092;18.918;2023-09-18T12:23:45;97120.59;;;28.26;33.69
82249;BME280;71851;49.092;18.918;2023-09-18T12:26:46;97117.75;;;28.77;33.07
82249;BME280;71851;49.092;18.918;2023-09-18T12:29:47;97122.34;;;28.76;32.87
82249;BME280;71851;49.092;18.918;2023-09-18T12:32:49;97120.44;;;29.04;32.11
82249;BME280;71851;49.092;18.918;2023-09-18T12:35:50;97125.06;;;28.17;33.70
82249;BME280;71851;49.092;18.918;2023-09-18T12:38:58;97107.50;;;28.46;32.96
82249;BME280;71851;49.092;18.918;2023-09-18T12:42:00;97127.59;;;28.27;32.61
82249;BME280;71851;49.092;18.918;2023-09-18T12:45:01;97100.59;;;27.44;34.64
82249;BME280;71851;49.092;18.918;2023-09-18T12:48:03;97107.19;;;27.33;35.12
82249;BME280;71851;49.092;18.918;2023-09-18T12:51:07;97120.88;;;27.41;35.23
82249;BME280;71851;49.092;18.918;2023-09-18T12:54:08;97117.78;;;26.87;35.72
82249;BME280;71851;49.092;18.918;2023-09-18T12:57:09;97102.19;;;26.60;36.83
82249;BME280;71851;49.092;18.918;2023-09-18T13:00:10;97101.84;;;26.43;37.28
82249;BME280;71851;49.092;18.918;2023-09-18T13:03:13;97108.16;;;26.00;37.88
82249;BME280;71851;49.092;18.918;2023-09-18T13:06:18;97104.25;;;25.54;38.96
82249;BME280;71851;49.092;18.918;2023-09-18T13:09:19;97099.31;;;25.66;38.59
82249;BME280;71851;49.092;18.918;2023-09-18T13:12:23;97088.09;;;25.87;38.27
82249;BME280;71851;49.092;18.918;2023-09-18T13:15:33;97094.28;;;25.59;39.46
82249;BME280;71851;49.092;18.918;2023-09-18T13:18:34;97098.94;;;25.44;40.06
82249;BME280;71851;49.092;18.918;2023-09-18T13:21:35;97098.22;;;25.28;40.18
82249;BME280;71851;49.092;18.918;2023-09-18T13:24:36;97115.22;;;25.13;39.52
82249;BME280;71851;49.092;18.918;2023-09-18T13:27:38;97106.16;;;24.99;39.86
82249;BME280;71851;49.092;18.918;2023-09-18T13:30:40;97085.06;;;25.21;39.76
82249;BME280;71851;49.092;18.918;2023-09-18T13:33:41;97072.91;;;25.39;38.96
82249;BME280;71851;49.092;18.918;2023-09-18T13:36:44;97074.59;;;25.25;39.62
82249;BME280;71851;49.092;18.918;2023-09-18T13:39:45;97059.91;;;25.07;39.42
82249;BME280;71851;49.092;18.918;2023-09-18T13:42:45;97069.66;;;24.98;39.93
82249;BME280;71851;49.092;18.918;2023-09-18T13:45:48;97049.69;;;25.09;39.89
82249;BME280;71851;49.092;18.918;2023-09-18T13:48:53;97066.69;;;25.00;40.30
82249;BME280;71851;49.092;18.918;2023-09-18T13:51:53;97068.69;;;25.23;39.73
82249;BME280;71851;49.092;18.918;2023-09-18T13:54:55;97053.00;;;25.40;39.26
82249;BME280;71851;49.092;18.918;2023-09-18T13:57:55;97050.97;;;25.22;39.55
82249;BME280;71851;49.092;18.918;2023-09-18T14:00:56;97053.19;;;25.10;40.22
82249;BME280;71851;49.092;18.918;2023-09-18T14:03:57;97048.72;;;24.95;39.63
82249;BME280;71851;49.092;18.918;2023-09-18T14:06:57;97037.59;;;25.17;39.80
82249;BME280;71851;49.092;18.918;2023-09-18T14:09:59;97044.84;;;25.16;39.98
82249;BME280;71851;49.092;18.918;2023-09-18T14:13:03;97044.78;;;25.21;40.11
82249;BME280;71851;49.092;18.918;2023-09-18T14:16:04;97028.50;;;25.08;40.36
82249;BME280;71851;49.092;18.918;2023-09-18T14:19:05;97021.25;;;25.03;40.04
82249;BME280;71851;49.092;18.918;2023-09-18T14:22:06;97020.63;;;24.78;40.58
82249;BME280;71851;49.092;18.918;2023-09-18T14:25:07;97017.19;;;24.57;40.70
82249;BME280;71851;49.092;18.918;2023-09-18T14:28:08;97017.47;;;24.61;41.26
82249;BME280;71851;49.092;18.918;2023-09-18T14:31:09;97015.13;;;24.44;42.49
82249;BME280;71851;49.092;18.918;2023-09-18T14:34:09;97003.38;;;24.35;41.93
82249;BME280;71851;49.092;18.918;2023-09-18T14:37:10;97013.53;;;24.38;42.43
82249;BME280;71851;49.092;18.918;2023-09-18T14:40:10;97026.72;;;24.34;42.61
82249;BME280;71851;49.092;18.918;2023-09-18T14:43:12;97007.16;;;24.24;43.71
82249;BME280;71851;49.092;18.918;2023-09-18T14:46:13;97015.78;;;24.16;42.92
82249;BME280;71851;49.092;18.918;2023-09-18T14:49:13;97014.72;;;24.17;42.82
82249;BME280;71851;49.092;18.918;2023-09-18T14:52:14;97007.47;;;24.12;43.18
82249;BME280;71851;49.092;18.918;2023-09-18T14:55:16;97007.69;;;24.26;43.40
82249;BME280;71851;49.092;18.918;2023-09-18T14:58:16;96998.59;;;24.27;43.18
82249;BME280;71851;49.092;18.918;2023-09-18T15:01:18;97003.66;;;24.28;43.49
82249;BME280;71851;49.092;18.918;2023-09-18T15:04:19;97001.88;;;24.09;43.92
82249;BME280;71851;49.092;18.918;2023-09-18T15:07:19;97004.72;;;24.27;44.19
82249;BME280;71851;49.092;18.918;2023-09-18T15:10:20;97007.94;;;24.29;43.97
82249;BME280;71851;49.092;18.918;2023-09-18T15:13:20;97004.75;;;24.22;44.16
82249;BME280;71851;49.092;18.918;2023-09-18T15:16:21;97004.47;;;24.24;44.23
82249;BME280;71851;49.092;18.918;2023-09-18T15:19:21;97003.41;;;24.20;44.15
82249;BME280;71851;49.092;18.918;2023-09-18T15:22:23;97010.41;;;24.16;44.09
82249;BME280;71851;49.092;18.918;2023-09-18T15:25:23;97001.50;;;24.25;44.23
82249;BME280;71851;49.092;18.918;2023-09-18T15:28:24;96998.84;;;24.25;43.55
82249;BME280;71851;49.092;18.918;2023-09-18T15:31:27;96993.25;;;24.12;44.35
82249;BME280;71851;49.092;18.918;2023-09-18T15:34:27;97001.88;;;23.99;44.37
82249;BME280;71851;49.092;18.918;2023-09-18T15:37:29;96983.63;;;24.06;44.45
82249;BME280;71851;49.092;18.918;2023-09-18T15:40:29;96983.34;;;23.97;44.94
82249;BME280;71851;49.092;18.918;2023-09-18T15:43:30;96988.19;;;23.85;45.19
82249;BME280;71851;49.092;18.918;2023-09-18T15:46:31;96982.81;;;24.00;44.79
82249;BME280;71851;49.092;18.918;2023-09-18T15:49:31;96978.84;;;23.83;45.13
82249;BME280;71851;49.092;18.918;2023-09-18T15:52:32;96975.31;;;23.97;44.98
82249;BME280;71851;49.092;18.918;2023-09-18T15:55:33;96980.13;;;23.95;44.89
82249;BME280;71851;49.092;18.918;2023-09-18T15:58:34;96971.03;;;23.96;45.31
82249;BME280;71851;49.092;18.918;2023-09-18T16:01:35;96975.59;;;23.96;45.20
82249;BME280;71851;49.092;18.918;2023-09-18T16:04:40;96971.59;;;23.88;45.57
82249;BME280;71851;49.092;18.918;2023-09-18T16:07:40;96960.09;;;23.83;45.40
82249;BME280;71851;49.092;18.918;2023-09-18T16:10:41;96953.91;;;23.77;45.59
82249;BME280;71851;49.092;18.918;2023-09-18T16:13:43;96949.91;;;23.75;46.22
82249;BME280;71851;49.092;18.918;2023-09-18T16:16:43;96953.97;;;23.62;46.54
82249;BME280;71851;49.092;18.918;2023-09-18T16:19:46;96954.78;;;23.57;46.83
82249;BME280;71851;49.092;18.918;2023-09-18T16:22:46;96943.00;;;23.48;47.16
82249;BME280;71851;49.092;18.918;2023-09-18T16:25:47;96936.84;;;23.48;47.07
82249;BME280;71851;49.092;18.918;2023-09-18T16:28:47;96928.78;;;23.53;47.05
82249;BME280;71851;49.092;18.918;2023-09-18T16:31:48;96928.53;;;23.49;46.47
82249;BME280;71851;49.092;18.918;2023-09-18T16:34:49;96931.75;;;23.41;47.65
82249;BME280;71851;49.092;18.918;2023-09-18T16:37:49;96942.47;;;23.41;47.35
82249;BME280;71851;49.092;18.918;2023-09-18T16:40:50;96933.13;;;23.34;47.73
82249;BME280;71851;49.092;18.918;2023-09-18T16:43:51;96927.22;;;23.32;47.84
82249;BME280;71851;49.092;18.918;2023-09-18T16:46:52;96929.91;;;23.32;48.12
82249;BME280;71851;49.092;18.918;2023-09-18T16:49:52;96914.06;;;23.30;48.20
82249;BME280;71851;49.092;18.918;2023-09-18T16:52:52;96910.03;;;23.23;48.64
82249;BME280;71851;49.092;18.918;2023-09-18T16:55:53;96914.88;;;23.16;48.85
82249;BME280;71851;49.092;18.918;2023-09-18T16:58:54;96918.88;;;23.23;48.85
82249;BME280;71851;49.092;18.918;2023-09-18T17:01:54;96909.81;;;23.14;49.03
82249;BME280;71851;49.092;18.918;2023-09-18T17:04:55;96909.53;;;23.06;49.00
82249;BME280;71851;49.092;18.918;2023-09-18T17:07:55;96915.97;;;22.90;50.51
82249;BME280;71851;49.092;18.918;2023-09-18T17:10:56;96913.00;;;23.01;49.71
82249;BME280;71851;49.092;18.918;2023-09-18T17:13:58;96912.22;;;23.06;49.61
82249;BME280;71851;49.092;18.918;2023-09-18T17:16:59;96912.50;;;23.14;49.25
82249;BME280;71851;49.092;18.918;2023-09-18T17:19:59;96914.09;;;23.20;49.28
82249;BME280;71851;49.092;18.918;2023-09-18T17:23:00;96914.88;;;23.26;49.16
82249;BME280;71851;49.092;18.918;2023-09-18T17:26:00;96906.56;;;23.17;49.41
82249;BME280;71851;49.092;18.918;2023-09-18T17:29:02;96903.38;;;23.15;49.04
82249;BME280;71851;49.092;18.918;2023-09-18T17:32:03;96903.38;;;23.15;49.63
82249;BME280;71851;49.092;18.918;2023-09-18T17:35:04;96903.13;;;23.12;49.44
82249;BME280;71851;49.092;18.918;2023-09-18T17:38:04;96900.72;;;23.10;49.61
82249;BME280;71851;49.092;18.918;2023-09-18T17:41:05;96901.00;;;23.09;50.11
82249;BME280;71851;49.092;18.918;2023-09-18T17:44:07;96887.88;;;23.02;50.39
82249;BME280;71851;49.092;18.918;2023-09-18T17:47:07;96893.22;;;22.97;50.59
82249;BME280;71851;49.092;18.918;2023-09-18T17:50:08;96901.53;;;22.91;50.49